createdAt,value
2023-03-30T00:00:11.813Z,509.00
2023-03-30T00:01:11.898Z,508.00
2023-03-30T00:02:11.852Z,507.00
2023-03-30T00:03:11.989Z,509.00
2023-03-30T00:04:12.150Z,512.00
2023-03-30T00:05:12.132Z,511.00
2023-03-30T00:06:11.953Z,508.00
2023-03-30T00:07:12.000Z,507.00
2023-03-30T00:08:12.025Z,510.00
2023-03-30T00:09:12.070Z,509.00
2023-03-30T00:10:12.115Z,509.00
2023-03-30T00:11:12.095Z,506.00
2023-03-30T00:12:12.124Z,508.00
2023-03-30T00:13:12.158Z,508.00
2023-03-30T00:14:12.208Z,506.00
2023-03-30T00:15:12.253Z,504.00
2023-03-30T00:16:12.257Z,505.00
2023-03-30T00:17:12.252Z,505.00
2023-03-30T00:18:12.321Z,505.00
2023-03-30T00:19:12.342Z,506.00
2023-03-30T00:20:12.460Z,505.00
2023-03-30T00:21:12.364Z,503.00
2023-03-30T00:22:12.392Z,504.00
2023-03-30T00:23:12.409Z,504.00
2023-03-30T00:24:12.430Z,503.00
2023-03-30T00:25:12.494Z,504.00
2023-03-30T00:26:12.481Z,505.00
2023-03-30T00:27:12.616Z,504.00
2023-03-30T00:28:12.749Z,506.00
2023-03-30T00:29:12.953Z,506.00
2023-03-30T00:30:13.212Z,507.00
2023-03-30T00:31:13.430Z,506.00
2023-03-30T00:32:13.602Z,505.00
2023-03-30T00:33:13.676Z,506.00
2023-03-30T00:34:13.844Z,503.00
2023-03-30T00:35:14.014Z,503.00
2023-03-30T00:36:14.239Z,503.00
2023-03-30T00:37:14.428Z,503.00
2023-03-30T00:38:14.652Z,504.00
2023-03-30T00:39:14.730Z,505.00
2023-03-30T00:40:15.015Z,503.00
2023-03-30T00:41:15.208Z,504.00
2023-03-30T00:42:15.404Z,504.00
2023-03-30T00:43:15.666Z,503.00
2023-03-30T00:44:15.820Z,504.00
2023-03-30T00:45:16.032Z,505.00
2023-03-30T00:46:16.248Z,506.00
2023-03-30T00:47:16.357Z,506.00
2023-03-30T00:48:16.549Z,505.00
2023-03-30T00:49:16.748Z,505.00
2023-03-30T00:50:16.919Z,505.00
2023-03-30T00:51:17.122Z,506.00
2023-03-30T00:52:17.244Z,508.00
2023-03-30T00:53:17.380Z,508.00
2023-03-30T00:54:17.527Z,509.00
2023-03-30T00:55:17.685Z,508.00
2023-03-30T00:56:17.853Z,507.00
2023-03-30T00:57:18.044Z,503.00
2023-03-30T00:58:18.186Z,505.00
2023-03-30T00:59:18.323Z,505.00
2023-03-30T01:00:18.474Z,502.00
2023-03-30T01:01:18.732Z,504.00
2023-03-30T01:02:18.683Z,506.00
2023-03-30T01:03:18.739Z,506.00
2023-03-30T01:04:18.658Z,509.00
2023-03-30T01:05:18.649Z,510.00
2023-03-30T01:06:18.643Z,509.00
2023-03-30T01:07:18.628Z,509.00
2023-03-30T01:08:18.623Z,509.00
2023-03-30T01:09:18.603Z,509.00
2023-03-30T01:10:18.616Z,508.00
2023-03-30T01:11:18.608Z,508.00
2023-03-30T01:12:18.598Z,507.00
2023-03-30T01:13:18.573Z,505.00
2023-03-30T01:14:18.576Z,507.00
2023-03-30T01:15:18.574Z,505.00
2023-03-30T01:16:18.582Z,505.00
2023-03-30T01:17:18.548Z,506.00
2023-03-30T01:18:18.589Z,506.00
2023-03-30T01:19:18.552Z,508.00
2023-03-30T01:20:18.534Z,509.00
2023-03-30T01:21:18.536Z,510.00
2023-03-30T01:22:18.517Z,509.00
2023-03-30T01:23:18.501Z,509.00
2023-03-30T01:24:18.515Z,509.00
2023-03-30T01:25:18.494Z,508.00
2023-03-30T01:26:18.511Z,506.00
2023-03-30T01:27:18.488Z,506.00
2023-03-30T01:28:18.463Z,505.00
2023-03-30T01:29:18.489Z,505.00
2023-03-30T01:30:18.463Z,504.00
2023-03-30T01:31:18.551Z,506.00
2023-03-30T01:32:18.461Z,509.00
2023-03-30T01:33:18.450Z,510.00
2023-03-30T01:34:18.439Z,512.00
2023-03-30T01:35:18.482Z,513.00
2023-03-30T01:36:18.481Z,510.00
2023-03-30T01:37:18.412Z,509.00
2023-03-30T01:38:18.414Z,511.00
2023-03-30T01:39:18.403Z,513.00
2023-03-30T01:40:18.383Z,511.00
2023-03-30T01:41:18.382Z,511.00
2023-03-30T01:42:18.378Z,509.00
2023-03-30T01:43:18.369Z,510.00
2023-03-30T01:44:18.350Z,511.00
2023-03-30T01:45:18.358Z,511.00
2023-03-30T01:46:18.433Z,512.00
2023-03-30T01:47:18.366Z,512.00
2023-03-30T01:48:18.338Z,511.00
2023-03-30T01:49:18.328Z,509.00
2023-03-30T01:50:18.324Z,507.00
2023-03-30T01:51:18.309Z,506.00
2023-03-30T01:52:18.324Z,503.00
2023-03-30T01:53:18.294Z,507.00
2023-03-30T01:54:18.299Z,507.00
2023-03-30T01:55:18.295Z,506.00
2023-03-30T01:56:18.292Z,506.00
2023-03-30T01:57:18.332Z,507.00
2023-03-30T01:58:18.256Z,507.00
2023-03-30T01:59:18.246Z,509.00
2023-03-30T02:00:18.241Z,509.00
2023-03-30T02:01:18.296Z,509.00
2023-03-30T02:02:18.293Z,508.00
2023-03-30T02:03:18.345Z,505.00
2023-03-30T02:04:18.225Z,508.00
2023-03-30T02:05:18.215Z,506.00
2023-03-30T02:06:18.210Z,506.00
2023-03-30T02:07:18.212Z,504.00
2023-03-30T02:08:18.185Z,505.00
2023-03-30T02:09:18.185Z,507.00
2023-03-30T02:10:18.167Z,509.00
2023-03-30T02:11:18.173Z,509.00
2023-03-30T02:12:18.150Z,506.00
2023-03-30T02:13:18.234Z,506.00
2023-03-30T02:14:18.135Z,508.00
2023-03-30T02:15:18.133Z,508.00
2023-03-30T02:16:18.205Z,512.00
2023-03-30T02:17:18.127Z,515.00
2023-03-30T02:18:18.149Z,513.00
2023-03-30T02:19:18.111Z,512.00
2023-03-30T02:20:18.121Z,510.00
2023-03-30T02:21:18.148Z,511.00
2023-03-30T02:22:18.171Z,510.00
2023-03-30T02:23:18.197Z,511.00
2023-03-30T02:24:18.202Z,510.00
2023-03-30T02:25:18.226Z,505.00
2023-03-30T02:26:18.254Z,506.00
2023-03-30T02:27:18.302Z,504.00
2023-03-30T02:28:18.379Z,506.00
2023-03-30T02:29:18.433Z,507.00
2023-03-30T02:30:18.465Z,504.00
2023-03-30T02:31:18.527Z,505.00
2023-03-30T02:32:18.521Z,506.00
2023-03-30T02:33:18.567Z,505.00
2023-03-30T02:34:18.616Z,506.00
2023-03-30T02:35:18.671Z,509.00
2023-03-30T02:36:18.786Z,508.00
2023-03-30T02:37:18.742Z,505.00
2023-03-30T02:38:18.759Z,507.00
2023-03-30T02:39:18.805Z,506.00
2023-03-30T02:40:18.963Z,506.00
2023-03-30T02:41:18.893Z,507.00
2023-03-30T02:42:18.946Z,513.00
2023-03-30T02:43:18.930Z,511.00
2023-03-30T02:44:18.966Z,510.00
2023-03-30T02:45:19.016Z,508.00
2023-03-30T02:46:19.088Z,504.00
2023-03-30T02:47:19.066Z,507.00
2023-03-30T02:48:19.104Z,502.00
2023-03-30T02:49:19.111Z,502.00
2023-03-30T02:50:19.147Z,501.00
2023-03-30T02:51:19.202Z,501.00
2023-03-30T02:52:19.230Z,499.00
2023-03-30T02:53:19.261Z,502.00
2023-03-30T02:54:19.300Z,502.00
2023-03-30T02:55:19.334Z,504.00
2023-03-30T02:56:19.335Z,504.00
2023-03-30T02:57:19.428Z,506.00
2023-03-30T02:58:19.405Z,507.00
2023-03-30T02:59:19.426Z,506.00
2023-03-30T03:00:19.475Z,508.00
2023-03-30T03:01:19.512Z,508.00
2023-03-30T03:02:19.487Z,507.00
2023-03-30T03:03:19.672Z,506.00
2023-03-30T03:04:19.548Z,506.00
2023-03-30T03:05:19.584Z,505.00
2023-03-30T03:06:19.617Z,504.00
2023-03-30T03:07:19.628Z,504.00
2023-03-30T03:08:19.700Z,502.00
2023-03-30T03:09:19.869Z,504.00
2023-03-30T03:10:20.009Z,503.00
2023-03-30T03:11:20.187Z,503.00
2023-03-30T03:12:20.383Z,502.00
2023-03-30T03:13:20.528Z,501.00
2023-03-30T03:14:20.731Z,500.00
2023-03-30T03:15:20.841Z,501.00
2023-03-30T03:16:21.138Z,502.00
2023-03-30T03:17:21.171Z,504.00
2023-03-30T03:18:21.373Z,505.00
2023-03-30T03:19:21.586Z,502.00
2023-03-30T03:20:21.757Z,502.00
2023-03-30T03:21:21.876Z,504.00
2023-03-30T03:22:22.050Z,501.00
2023-03-30T03:23:22.268Z,502.00
2023-03-30T03:24:22.489Z,503.00
2023-03-30T03:25:22.705Z,502.00
2023-03-30T03:26:22.800Z,503.00
2023-03-30T03:27:22.998Z,502.00
2023-03-30T03:28:23.149Z,500.00
2023-03-30T03:29:23.395Z,499.00
2023-03-30T03:30:23.543Z,501.00
2023-03-30T03:31:23.821Z,502.00
2023-03-30T03:32:23.981Z,502.00
2023-03-30T03:33:24.114Z,505.00
2023-03-30T03:34:24.321Z,507.00
2023-03-30T03:35:24.533Z,509.00
2023-03-30T03:36:24.666Z,512.00
2023-03-30T03:37:24.771Z,511.00
2023-03-30T03:38:24.759Z,510.00
2023-03-30T03:39:24.767Z,508.00
2023-03-30T03:40:24.753Z,508.00
2023-03-30T03:41:24.736Z,505.00
2023-03-30T03:42:24.728Z,506.00
2023-03-30T03:43:24.741Z,507.00
2023-03-30T03:44:24.713Z,509.00
2023-03-30T03:45:24.725Z,507.00
2023-03-30T03:46:24.741Z,508.00
2023-03-30T03:47:24.740Z,506.00
2023-03-30T03:48:24.762Z,505.00
2023-03-30T03:49:24.844Z,503.00
2023-03-30T03:50:24.832Z,503.00
2023-03-30T03:51:24.843Z,504.00
2023-03-30T03:52:24.806Z,503.00
2023-03-30T03:53:24.792Z,503.00
2023-03-30T03:54:24.781Z,505.00
2023-03-30T03:55:24.795Z,505.00
2023-03-30T03:56:24.768Z,505.00
2023-03-30T03:57:24.785Z,506.00
2023-03-30T03:58:24.754Z,506.00
2023-03-30T03:59:24.744Z,506.00
2023-03-30T04:00:24.770Z,503.00
2023-03-30T04:01:24.737Z,503.00
2023-03-30T04:02:24.857Z,500.00
2023-03-30T04:03:24.734Z,501.00
2023-03-30T04:04:24.737Z,501.00
2023-03-30T04:05:24.710Z,504.00
2023-03-30T04:06:24.718Z,503.00
2023-03-30T04:07:24.688Z,502.00
2023-03-30T04:08:24.694Z,501.00
2023-03-30T04:09:24.686Z,501.00
2023-03-30T04:10:24.666Z,502.00
2023-03-30T04:11:24.655Z,502.00
2023-03-30T04:12:24.662Z,500.00
2023-03-30T04:13:24.690Z,500.00
2023-03-30T04:14:24.638Z,502.00
2023-03-30T04:15:24.643Z,502.00
2023-03-30T04:16:24.682Z,500.00
2023-03-30T04:17:24.662Z,501.00
2023-03-30T04:18:24.615Z,501.00
2023-03-30T04:19:24.620Z,500.00
2023-03-30T04:20:24.590Z,501.00
2023-03-30T04:21:24.591Z,503.00
2023-03-30T04:22:24.600Z,505.00
2023-03-30T04:23:24.671Z,508.00
2023-03-30T04:24:24.589Z,507.00
2023-03-30T04:25:24.580Z,507.00
2023-03-30T04:26:24.597Z,503.00
2023-03-30T04:27:24.575Z,504.00
2023-03-30T04:28:24.559Z,503.00
2023-03-30T04:29:24.585Z,505.00
2023-03-30T04:30:24.608Z,509.00
2023-03-30T04:31:24.685Z,510.00
2023-03-30T04:32:24.689Z,512.00
2023-03-30T04:33:24.754Z,512.00
2023-03-30T04:34:24.717Z,514.00
2023-03-30T04:35:24.728Z,513.00
2023-03-30T04:36:24.790Z,513.00
2023-03-30T04:37:24.789Z,512.00
2023-03-30T04:38:24.817Z,514.00
2023-03-30T04:39:24.830Z,514.00
2023-03-30T04:40:24.866Z,514.00
2023-03-30T04:41:24.893Z,512.00
2023-03-30T04:42:24.918Z,510.00
2023-03-30T04:43:24.972Z,511.00
2023-03-30T04:44:24.999Z,511.00
2023-03-30T04:45:25.024Z,510.00
2023-03-30T04:46:25.055Z,510.00
2023-03-30T04:47:25.104Z,509.00
2023-03-30T04:48:25.074Z,509.00
2023-03-30T04:49:25.104Z,510.00
2023-03-30T04:50:25.146Z,511.00
2023-03-30T04:51:25.101Z,512.00
2023-03-30T04:52:25.117Z,512.00
2023-03-30T04:53:25.136Z,512.00
2023-03-30T04:54:25.144Z,513.00
2023-03-30T04:55:25.177Z,511.00
2023-03-30T04:56:25.225Z,509.00
2023-03-30T04:57:25.312Z,510.00
2023-03-30T04:58:25.230Z,507.00
2023-03-30T04:59:25.248Z,506.00
2023-03-30T05:00:25.263Z,506.00
2023-03-30T05:01:25.337Z,507.00
2023-03-30T05:02:25.417Z,509.00
2023-03-30T05:03:25.461Z,511.00
2023-03-30T05:04:25.341Z,513.00
2023-03-30T05:05:25.357Z,512.00
2023-03-30T05:06:25.402Z,514.00
2023-03-30T05:07:25.422Z,516.00
2023-03-30T05:08:25.493Z,517.00
2023-03-30T05:09:25.476Z,517.00
2023-03-30T05:10:25.505Z,517.00
2023-03-30T05:11:25.526Z,519.00
2023-03-30T05:12:25.576Z,518.00
2023-03-30T05:13:25.624Z,516.00
2023-03-30T05:14:25.626Z,516.00
2023-03-30T05:15:25.622Z,517.00
2023-03-30T05:16:25.678Z,514.00
2023-03-30T05:17:25.747Z,514.00
2023-03-30T05:18:25.701Z,512.00
2023-03-30T05:19:25.771Z,512.00
2023-03-30T05:20:25.776Z,510.00
2023-03-30T05:21:25.793Z,510.00
2023-03-30T05:22:25.811Z,511.00
2023-03-30T05:23:25.827Z,510.00
2023-03-30T05:24:25.874Z,507.00
2023-03-30T05:25:25.868Z,507.00
2023-03-30T05:26:25.903Z,508.00
2023-03-30T05:27:25.910Z,508.00
2023-03-30T05:28:25.922Z,515.00
2023-03-30T05:29:25.947Z,575.00
2023-03-30T05:30:25.965Z,676.00
2023-03-30T05:31:26.012Z,702.00
2023-03-30T05:32:26.042Z,692.00
2023-03-30T05:33:26.032Z,718.00
2023-03-30T05:34:26.081Z,716.00
2023-03-30T05:35:26.227Z,717.00
2023-03-30T05:36:26.362Z,700.00
2023-03-30T05:37:26.530Z,710.00
2023-03-30T05:38:26.711Z,815.00
2023-03-30T05:39:26.893Z,912.00
2023-03-30T05:40:27.147Z,1535.00
2023-03-30T05:41:27.321Z,1032.00
2023-03-30T05:42:27.539Z,988.00
2023-03-30T05:43:27.760Z,963.00
2023-03-30T05:44:28.086Z,950.00
2023-03-30T05:45:28.165Z,956.00
2023-03-30T05:46:28.413Z,966.00
2023-03-30T05:47:28.613Z,993.00
2023-03-30T05:48:28.779Z,1006.00
2023-03-30T05:49:28.971Z,1023.00
2023-03-30T05:50:29.170Z,1038.00
2023-03-30T05:51:29.362Z,1050.00
2023-03-30T05:52:29.556Z,1060.00
2023-03-30T05:53:29.740Z,1085.00
2023-03-30T05:54:29.938Z,1111.00
2023-03-30T05:55:30.117Z,1124.00
2023-03-30T05:56:30.362Z,1129.00
2023-03-30T05:57:30.544Z,1136.00
2023-03-30T05:58:30.674Z,1143.00
2023-03-30T05:59:31.098Z,1154.00
2023-03-30T06:00:31.074Z,1160.00
2023-03-30T06:01:31.244Z,1165.00
2023-03-30T06:02:31.419Z,1172.00
2023-03-30T06:03:31.745Z,1178.00
2023-03-30T06:04:31.829Z,1198.00
2023-03-30T06:05:32.109Z,1209.00
2023-03-30T06:06:32.089Z,1214.00
2023-03-30T06:07:32.303Z,1219.00
2023-03-30T06:08:32.421Z,1235.00
2023-03-30T06:09:32.616Z,1238.00
2023-03-30T06:10:32.784Z,1244.00
2023-03-30T06:11:32.921Z,1253.00
2023-03-30T06:12:33.125Z,1260.00
2023-03-30T06:13:33.365Z,1271.00
2023-03-30T06:14:33.558Z,1280.00
2023-03-30T06:15:33.768Z,1280.00
2023-03-30T06:16:34.036Z,1284.00
2023-03-30T06:17:34.178Z,1283.00
2023-03-30T06:18:34.374Z,1282.00
2023-03-30T06:19:34.625Z,1282.00
2023-03-30T06:20:35.081Z,1275.00
2023-03-30T06:21:34.828Z,1205.00
2023-03-30T06:22:34.833Z,1195.00
2023-03-30T06:23:34.853Z,1202.00
2023-03-30T06:24:34.877Z,1198.00
2023-03-30T06:25:34.856Z,1190.00
2023-03-30T06:26:34.873Z,1156.00
2023-03-30T06:27:34.865Z,1151.00
2023-03-30T06:28:34.895Z,1152.00
2023-03-30T06:29:34.858Z,1151.00
2023-03-30T06:30:34.856Z,1149.00
2023-03-30T06:31:34.864Z,1149.00
2023-03-30T06:32:35.106Z,1110.00
2023-03-30T06:33:34.897Z,1080.00
2023-03-30T06:34:34.871Z,1122.00
2023-03-30T06:35:34.978Z,1123.00
2023-03-30T06:36:44.179Z,1114.00
2023-03-30T06:37:35.887Z,1102.00
2023-03-30T06:38:34.890Z,1040.00
2023-03-30T06:39:34.867Z,1049.00
2023-03-30T06:40:35.119Z,1043.00
2023-03-30T06:41:34.844Z,1043.00
2023-03-30T06:42:34.854Z,1044.00
2023-03-30T06:43:34.864Z,1045.00
2023-03-30T06:44:34.860Z,1043.00
2023-03-30T06:45:34.878Z,1040.00
2023-03-30T06:46:34.822Z,1036.00
2023-03-30T06:47:35.190Z,1032.00
2023-03-30T06:48:34.830Z,1025.00
2023-03-30T06:49:34.818Z,1006.00
2023-03-30T06:50:35.097Z,997.00
2023-03-30T06:51:34.802Z,967.00
2023-03-30T06:52:34.792Z,955.00
2023-03-30T06:53:34.788Z,955.00
2023-03-30T06:54:34.756Z,950.00
2023-03-30T06:55:34.762Z,945.00
2023-03-30T06:56:34.801Z,943.00
2023-03-30T06:57:34.784Z,939.00
2023-03-30T06:58:34.749Z,932.00
2023-03-30T06:59:34.956Z,922.00
2023-03-30T07:00:34.728Z,913.00
2023-03-30T07:01:34.836Z,770.00
2023-03-30T07:02:34.741Z,688.00
2023-03-30T07:03:35.615Z,661.00
2023-03-30T07:04:34.783Z,661.00
2023-03-30T07:05:34.729Z,686.00
2023-03-30T07:06:34.763Z,698.00
2023-03-30T07:07:34.787Z,734.00
2023-03-30T07:08:34.797Z,707.00
2023-03-30T07:09:34.806Z,690.00
2023-03-30T07:10:34.875Z,679.00
2023-03-30T07:11:35.116Z,678.00
2023-03-30T07:12:34.944Z,677.00
2023-03-30T07:13:35.121Z,669.00
2023-03-30T07:14:35.030Z,665.00
2023-03-30T07:15:35.125Z,665.00
2023-03-30T07:16:35.399Z,666.00
2023-03-30T07:17:35.475Z,669.00
2023-03-30T07:18:35.589Z,671.00
2023-03-30T07:19:35.748Z,672.00
2023-03-30T07:20:35.922Z,673.00
2023-03-30T07:21:36.102Z,668.00
2023-03-30T07:22:36.250Z,661.00
2023-03-30T07:23:36.412Z,655.00
2023-03-30T07:24:36.578Z,658.00
2023-03-30T07:25:36.745Z,654.00
2023-03-30T07:26:37.117Z,655.00
2023-03-30T07:27:37.196Z,658.00
2023-03-30T07:28:37.387Z,751.00
2023-03-30T07:29:37.609Z,796.00
2023-03-30T07:30:37.820Z,845.00
2023-03-30T07:31:38.170Z,974.00
2023-03-30T07:32:38.294Z,884.00
2023-03-30T07:33:38.689Z,874.00
2023-03-30T07:34:38.547Z,866.00
2023-03-30T07:35:38.699Z,867.00
2023-03-30T07:36:38.947Z,868.00
2023-03-30T07:37:39.154Z,862.00
2023-03-30T07:38:39.370Z,863.00
2023-03-30T07:39:39.561Z,873.00
2023-03-30T07:40:39.764Z,885.00
2023-03-30T07:41:39.940Z,922.00
2023-03-30T07:42:40.138Z,916.00
2023-03-30T07:43:40.430Z,898.00
2023-03-30T07:44:40.572Z,891.00
2023-03-30T07:45:40.781Z,891.00
2023-03-30T07:46:40.958Z,900.00
2023-03-30T07:47:41.132Z,896.00
2023-03-30T07:48:41.298Z,876.00
2023-03-30T07:49:41.520Z,877.00
2023-03-30T07:50:41.674Z,910.00
2023-03-30T07:51:41.879Z,919.00
2023-03-30T07:52:42.073Z,940.00
2023-03-30T07:53:42.289Z,937.00
2023-03-30T07:54:42.438Z,935.00
2023-03-30T07:55:42.637Z,935.00
2023-03-30T07:56:42.981Z,937.00
2023-03-30T07:57:43.014Z,940.00
2023-03-30T07:58:43.175Z,943.00
2023-03-30T07:59:43.369Z,950.00
2023-03-30T08:00:43.520Z,951.00
2023-03-30T08:01:43.743Z,956.00
2023-03-30T08:02:44.180Z,963.00
2023-03-30T08:03:44.034Z,977.00
2023-03-30T08:04:44.204Z,985.00
2023-03-30T08:05:44.366Z,992.00
2023-03-30T08:06:44.538Z,1008.00
2023-03-30T08:07:44.700Z,1025.00
2023-03-30T08:08:44.908Z,1044.00
2023-03-30T08:09:45.045Z,1057.00
2023-03-30T08:10:45.202Z,1063.00
2023-03-30T08:11:45.368Z,1066.00
2023-03-30T08:12:45.529Z,1070.00
2023-03-30T08:13:45.661Z,1077.00
2023-03-30T08:14:45.836Z,1081.00
2023-03-30T08:15:46.070Z,1088.00
2023-03-30T08:16:46.141Z,1099.00
2023-03-30T08:17:46.325Z,1114.00
2023-03-30T08:18:46.477Z,1126.00
2023-03-30T08:19:46.691Z,1134.00
2023-03-30T08:20:47.135Z,1139.00
2023-03-30T08:21:46.979Z,1147.00
2023-03-30T08:22:47.199Z,1144.00
2023-03-30T08:23:47.377Z,1068.00
2023-03-30T08:24:47.553Z,1059.00
2023-03-30T08:25:48.136Z,944.00
2023-03-30T08:26:47.721Z,874.00
2023-03-30T08:27:47.737Z,870.00
2023-03-30T08:28:47.749Z,818.00
2023-03-30T08:29:47.731Z,766.00
2023-03-30T08:30:47.748Z,737.00
2023-03-30T08:31:47.796Z,715.00
2023-03-30T08:32:47.861Z,701.00
2023-03-30T08:33:47.824Z,687.00
2023-03-30T08:34:47.825Z,667.00
2023-03-30T08:35:47.915Z,645.00
2023-03-30T08:36:47.878Z,632.00
2023-03-30T08:37:47.934Z,627.00
2023-03-30T08:38:47.985Z,683.00
2023-03-30T08:39:48.039Z,705.00
2023-03-30T08:40:48.104Z,705.00
2023-03-30T08:41:48.120Z,699.00
2023-03-30T08:42:48.191Z,750.00
2023-03-30T08:43:48.217Z,760.00
2023-03-30T08:44:48.289Z,745.00
2023-03-30T08:45:48.339Z,752.00
2023-03-30T08:46:48.329Z,750.00
2023-03-30T08:47:48.425Z,756.00
2023-03-30T08:48:48.367Z,767.00
2023-03-30T08:49:48.382Z,771.00
2023-03-30T08:50:48.408Z,761.00
2023-03-30T08:51:48.437Z,774.00
2023-03-30T08:52:48.488Z,779.00
2023-03-30T08:53:48.496Z,784.00
2023-03-30T08:54:48.522Z,795.00
2023-03-30T08:55:48.572Z,819.00
2023-03-30T08:56:48.589Z,822.00
2023-03-30T08:57:48.600Z,827.00
2023-03-30T08:58:48.600Z,824.00
2023-03-30T08:59:48.618Z,826.00
2023-03-30T09:00:48.671Z,831.00
2023-03-30T09:01:48.793Z,837.00
2023-03-30T09:02:48.669Z,812.00
2023-03-30T09:03:48.649Z,836.00
2023-03-30T09:04:48.672Z,888.00
2023-03-30T09:05:48.623Z,800.00
2023-03-30T09:06:48.665Z,795.00
2023-03-30T09:07:48.634Z,784.00
2023-03-30T09:08:48.676Z,787.00
2023-03-30T09:09:49.437Z,794.00
2023-03-30T09:10:49.153Z,796.00
2023-03-30T09:11:48.690Z,804.00
2023-03-30T09:12:48.680Z,825.00
2023-03-30T09:13:48.686Z,845.00
2023-03-30T09:14:48.712Z,839.00
2023-03-30T09:15:49.189Z,836.00
2023-03-30T09:16:48.822Z,831.00
2023-03-30T09:17:48.777Z,823.00
2023-03-30T09:18:48.751Z,824.00
2023-03-30T09:19:48.803Z,827.00
2023-03-30T09:20:49.179Z,827.00
2023-03-30T09:21:48.828Z,822.00
2023-03-30T09:22:48.832Z,823.00
2023-03-30T09:23:48.869Z,815.00
2023-03-30T09:24:48.854Z,814.00
2023-03-30T09:25:48.905Z,814.00
2023-03-30T09:26:49.183Z,815.00
2023-03-30T09:27:48.924Z,1036.00
2023-03-30T09:28:48.959Z,905.00
2023-03-30T09:29:48.968Z,797.00
2023-03-30T09:30:49.203Z,790.00
2023-03-30T09:31:49.078Z,735.00
2023-03-30T09:32:49.170Z,710.00
2023-03-30T09:33:49.169Z,693.00
2023-03-30T09:34:49.231Z,685.00
2023-03-30T09:35:49.292Z,667.00
2023-03-30T09:36:49.682Z,656.00
2023-03-30T09:37:49.295Z,636.00
2023-03-30T09:38:49.317Z,622.00
2023-03-30T09:39:49.337Z,615.00
2023-03-30T09:40:49.411Z,612.00
2023-03-30T09:41:49.703Z,617.00
2023-03-30T09:42:49.510Z,627.00
2023-03-30T09:43:49.499Z,628.00
2023-03-30T09:44:49.574Z,640.00
2023-03-30T09:45:49.638Z,644.00
2023-03-30T09:46:49.662Z,643.00
2023-03-30T09:47:49.790Z,642.00
2023-03-30T09:48:49.748Z,644.00
2023-03-30T09:49:49.759Z,645.00
2023-03-30T09:50:49.799Z,647.00
2023-03-30T09:51:50.167Z,652.00
2023-03-30T09:52:49.828Z,652.00
2023-03-30T09:53:49.856Z,653.00
2023-03-30T09:54:49.863Z,650.00
2023-03-30T09:55:49.833Z,651.00
2023-03-30T09:56:49.864Z,651.00
2023-03-30T09:57:49.839Z,652.00
2023-03-30T09:58:49.844Z,656.00
2023-03-30T09:59:49.927Z,655.00
2023-03-30T10:00:49.942Z,655.00
2023-03-30T10:01:50.021Z,653.00
2023-03-30T10:02:50.048Z,653.00
2023-03-30T10:03:50.183Z,650.00
2023-03-30T10:04:50.170Z,652.00
2023-03-30T10:05:50.175Z,649.00
2023-03-30T10:06:50.185Z,647.00
2023-03-30T10:07:50.240Z,645.00
2023-03-30T10:08:50.291Z,641.00
2023-03-30T10:09:50.346Z,639.00
2023-03-30T10:10:50.415Z,635.00
2023-03-30T10:11:50.469Z,634.00
2023-03-30T10:12:50.533Z,631.00
2023-03-30T10:13:50.541Z,629.00
2023-03-30T10:14:50.634Z,627.00
2023-03-30T10:15:50.667Z,625.00
2023-03-30T10:16:50.674Z,627.00
2023-03-30T10:17:50.976Z,625.00
2023-03-30T10:18:51.141Z,625.00
2023-03-30T10:19:57.591Z,629.00
2023-03-30T10:20:52.363Z,620.00
2023-03-30T10:21:51.338Z,624.00
2023-03-30T10:22:51.372Z,625.00
2023-03-30T10:23:51.349Z,625.00
2023-03-30T10:24:51.320Z,622.00
2023-03-30T10:25:51.341Z,622.00
2023-03-30T10:26:51.316Z,618.00
2023-03-30T10:27:51.321Z,616.00
2023-03-30T10:28:51.292Z,617.00
2023-03-30T10:29:51.308Z,613.00
2023-03-30T10:30:51.298Z,613.00
2023-03-30T10:31:51.321Z,613.00
2023-03-30T10:32:51.398Z,614.00
2023-03-30T10:33:51.324Z,612.00
2023-03-30T10:34:51.269Z,610.00
2023-03-30T10:35:51.318Z,608.00
2023-03-30T10:36:53.256Z,609.00
2023-03-30T10:37:51.307Z,609.00
2023-03-30T10:38:51.247Z,609.00
2023-03-30T10:39:51.284Z,607.00
2023-03-30T10:40:51.257Z,606.00
2023-03-30T10:41:51.220Z,606.00
2023-03-30T10:42:51.246Z,606.00
2023-03-30T10:43:51.199Z,605.00
2023-03-30T10:44:51.274Z,603.00
2023-03-30T10:45:51.222Z,604.00
2023-03-30T10:46:51.284Z,604.00
2023-03-30T10:47:51.212Z,605.00
2023-03-30T10:48:51.214Z,605.00
2023-03-30T10:49:51.154Z,605.00
2023-03-30T10:50:51.300Z,602.00
2023-03-30T10:51:51.228Z,600.00
2023-03-30T10:52:58.473Z,599.00
2023-03-30T10:53:52.117Z,599.00
2023-03-30T10:54:51.140Z,598.00
2023-03-30T10:55:51.262Z,594.00
2023-03-30T10:56:51.299Z,590.00
2023-03-30T10:57:51.086Z,591.00
2023-03-30T10:58:51.161Z,591.00
2023-03-30T10:59:51.086Z,590.00
2023-03-30T11:00:51.249Z,590.00
2023-03-30T11:01:51.296Z,589.00
2023-03-30T11:02:51.307Z,587.00
2023-03-30T11:03:51.452Z,586.00
2023-03-30T11:04:51.040Z,582.00
2023-03-30T11:05:51.042Z,582.00
2023-03-30T11:06:51.289Z,583.00
2023-03-30T11:07:51.094Z,578.00
2023-03-30T11:08:51.092Z,575.00
2023-03-30T11:09:51.258Z,573.00
2023-03-30T11:10:51.185Z,571.00
2023-03-30T11:11:51.223Z,571.00
2023-03-30T11:12:51.285Z,571.00
2023-03-30T11:13:51.312Z,571.00
2023-03-30T11:14:51.259Z,570.00
2023-03-30T11:15:52.234Z,569.00
2023-03-30T11:16:53.398Z,569.00
2023-03-30T11:17:51.518Z,569.00
2023-03-30T11:18:51.528Z,571.00
2023-03-30T11:19:51.516Z,573.00
2023-03-30T11:20:51.601Z,574.00
2023-03-30T11:21:51.654Z,574.00
2023-03-30T11:22:51.726Z,576.00
2023-03-30T11:23:51.699Z,580.00
2023-03-30T11:24:51.727Z,583.00
2023-03-30T11:25:51.778Z,583.00
2023-03-30T11:26:52.222Z,583.00
2023-03-30T11:27:54.239Z,586.00
2023-03-30T11:28:51.882Z,586.00
2023-03-30T11:29:51.877Z,584.00
2023-03-30T11:30:51.845Z,581.00
2023-03-30T11:31:51.867Z,579.00
2023-03-30T11:32:51.855Z,583.00
2023-03-30T11:33:51.848Z,580.00
2023-03-30T11:34:51.822Z,576.00
2023-03-30T11:35:51.892Z,578.00
2023-03-30T11:36:51.836Z,577.00
2023-03-30T11:37:51.855Z,577.00
2023-03-30T11:38:51.836Z,576.00
2023-03-30T11:39:51.800Z,581.00
2023-03-30T11:40:51.803Z,578.00
2023-03-30T11:41:51.774Z,576.00
2023-03-30T11:42:51.795Z,575.00
2023-03-30T11:43:51.766Z,573.00
2023-03-30T11:44:51.802Z,577.00
2023-03-30T11:45:51.792Z,574.00
2023-03-30T11:46:51.976Z,570.00
2023-03-30T11:47:51.792Z,569.00
2023-03-30T11:48:51.748Z,570.00
2023-03-30T11:49:51.756Z,570.00
2023-03-30T11:50:51.716Z,569.00
2023-03-30T11:51:51.725Z,568.00
2023-03-30T11:52:51.732Z,567.00
2023-03-30T11:53:51.725Z,568.00
2023-03-30T11:55:02.276Z,569.00
2023-03-30T11:55:52.760Z,570.00
2023-03-30T11:56:51.810Z,567.00
2023-03-30T11:57:51.670Z,564.00
2023-03-30T11:58:51.665Z,561.00
2023-03-30T11:59:51.679Z,560.00
2023-03-30T12:00:51.679Z,557.00
2023-03-30T12:01:51.654Z,559.00
2023-03-30T12:02:51.731Z,559.00
2023-03-30T12:03:51.834Z,558.00
2023-03-30T12:04:51.765Z,557.00
2023-03-30T12:05:51.633Z,555.00
2023-03-30T12:06:51.626Z,555.00
2023-03-30T12:07:51.621Z,554.00
2023-03-30T12:08:51.607Z,554.00
2023-03-30T12:09:51.586Z,554.00
2023-03-30T12:10:51.573Z,554.00
2023-03-30T12:11:51.781Z,552.00
2023-03-30T12:12:51.785Z,552.00
2023-03-30T12:13:52.424Z,552.00
2023-03-30T12:14:51.856Z,552.00
2023-03-30T12:15:51.899Z,552.00
2023-03-30T12:16:51.935Z,553.00
2023-03-30T12:17:52.028Z,549.00
2023-03-30T12:18:51.935Z,547.00
2023-03-30T12:19:56.626Z,545.00
2023-03-30T12:20:52.975Z,546.00
2023-03-30T12:21:51.993Z,548.00
2023-03-30T12:22:52.013Z,545.00
2023-03-30T12:23:51.952Z,545.00
2023-03-30T12:24:51.939Z,542.00
2023-03-30T12:25:51.971Z,542.00